Forside
METAR-TAF:

METAR-TAF

Lufthavne :

Bukhara, Usbekistan

Breddekreds: 39-46-30N, længdekreds: 064-29-00E, højde: 229 m

Aktuelle vejr

Denne rapport blev lavet for 37 minutter siden, kl. 02:30 UTC
Vind 6 kt fra nordnordvest
Temperatur 0°C
Fugtighed 74%
Tryk 1027 hPa
Sigt: 8000 m

METAR: UTSB 160230Z 34006KT 8000 NSC M00/M04 Q1027 R01/CLRD70 NOSIG

Tid: 08:07 (03:07 UTC)

Vejrudsigter

Denne rapport blev lavet for 4 timer og 7 minutter siden, kl. 23:00 UTC
Foreløbig gælder fra 16 på 00 UTC til 16 på 24 UTC
Vind 3 kt fra varierende retninger
Sigt: 6000 m
Midlertidig
fra 16 på 00 UTC til 16 på 05 UTC
Vind 10 kt fra nordnordvest
Sigt: 0400 m
i en højde af 200 ft
rimtåge

TAF: UTSB 152300Z 1600/1624 VRB03KT 6000 NSC TEMPO 1600/1605 34010KT 0400 FZFG VV002

Vejrobservationer og prognoser fra mere end 4000 lufthavne (METAR og TAF).

De gule og røde prikker repræsenterer de meteorologiske stationer.

Flyt musen over at se navnet på stationen.

Så klik over at se vejr observationer og prognoser.

At skifte det kort: Klik på de grønne knapper med et sort kors for at zoome ind; på den grønne knap med en bindestreg for at zoome ud; eller på de grønne pile for tilstødende kort.


METAR-TAF: